Time;durP1;ratioP1;P1;durP2;ratioP2;P2;SDS_P1;SDS_P2;PMS_P1;PMS_P2;Temp;Humidity;BMP_temperature;BMP_pressure;BME280_temperature;BME280_humidity;BME280_pressure;Samples;Min_cycle;Max_cycle;Signal;HPM_P1;HPM_P2
2022/06/15 00:01:13;;;;;;;8.88;5.68;;;;;;;;;;5054038;28;20234;-51
2022/06/15 00:03:41;;;;;;;8.10;5.35;;;;;;;;;;5054073;28;20311;-52
2022/06/15 00:06:09;;;;;;;10.50;6.95;;;;;;;;;;5064910;28;20231;-50
2022/06/15 00:08:36;;;;;;;16.70;10.57;;;;;;;;;;5063021;28;20304;-51
2022/06/15 00:11:06;;;;;;;17.80;12.70;;;;;;;;;;5057459;28;20236;-50
2022/06/15 00:13:33;;;;;;;17.20;13.80;;;;;;;;;;5073704;28;20234;-52
2022/06/15 00:15:59;;;;;;;19.08;14.25;;;;;;;;;;5062200;28;20228;-51
2022/06/15 00:18:28;;;;;;;19.15;14.40;;;;;;;;;;5059858;28;20727;-51
2022/06/15 00:20:55;;;;;;;15.70;12.60;;;;;;;;;;5053396;28;20667;-51
2022/06/15 00:23:22;;;;;;;18.15;11.05;;;;;;;;;;5057911;28;20578;-51
2022/06/15 00:25:49;;;;;;;15.65;9.75;;;;;;;;;;5054763;28;20654;-51
2022/06/15 00:28:15;;;;;;;12.85;8.85;;;;;;;;;;5056314;28;20237;-51
2022/06/15 00:30:42;;;;;;;11.25;7.85;;;;;;;;;;5060358;28;20239;-50
2022/06/15 00:33:08;;;;;;;10.50;7.65;;;;;;;;;;5053715;28;20247;-52
2022/06/15 00:35:34;;;;;;;12.95;7.78;;;;;;;;;;5058637;28;20234;-52
2022/06/15 00:38:02;;;;;;;7.47;6.78;;;;;;;;;;5056038;28;20236;-51
2022/06/15 00:40:29;;;;;;;8.25;7.38;;;;;;;;;;5055746;28;20232;-51
2022/06/15 00:42:55;;;;;;;9.07;6.88;;;;;;;;;;5056663;28;20265;-51
2022/06/15 00:45:21;;;;;;;10.35;7.30;;;;;;;;;;5061470;28;20709;-52
2022/06/15 00:47:48;;;;;;;9.68;6.70;;;;;;;;;;5067794;28;20235;-51
2022/06/15 00:50:17;;;;;;;8.95;6.95;;;;;;;;;;5053787;28;20227;-51
2022/06/15 00:52:47;;;;;;;14.40;8.98;;;;;;;;;;5055152;28;20248;-52
2022/06/15 00:55:16;;;;;;;36.25;23.13;;;;;;;;;;5045498;28;20601;-51
2022/06/15 00:57:43;;;;;;;44.88;27.02;;;;;;;;;;5053769;28;20231;-51
2022/06/15 01:00:11;;;;;;;44.03;25.75;;;;;;;;;;5059422;28;20230;-52
2022/06/15 01:02:38;;;;;;;39.88;25.20;;;;;;;;;;5062111;28;20224;-51
2022/06/15 01:05:07;;;;;;;42.03;23.50;;;;;;;;;;5057257;28;20239;-51
2022/06/15 01:07:42;;;;;;;36.85;23.90;;;;;;;;;;5052753;28;20319;-51
2022/06/15 01:10:25;;;;;;;39.92;24.30;;;;;;;;;;5049818;28;20284;-52
2022/06/15 01:12:59;;;;;;;35.60;24.00;;;;;;;;;;5064857;28;20238;-52
2022/06/15 01:15:31;;;;;;;19.85;13.57;;;;;;;;;;5062772;28;20713;-51
2022/06/15 01:18:06;;;;;;;13.93;9.60;;;;;;;;;;5070260;28;20224;-51
2022/06/15 01:20:38;;;;;;;10.80;6.32;;;;;;;;;;5068641;28;20230;-53
2022/06/15 01:23:19;;;;;;;7.90;5.15;;;;;;;;;;5054000;28;20240;-53
2022/06/15 01:25:47;;;;;;;6.50;5.00;;;;;;;;;;5056787;28;20244;-52
2022/06/15 01:28:39;;;;;;;7.35;4.93;;;;;;;;;;5050497;28;20258;-53
2022/06/15 01:31:11;;;;;;;6.78;4.22;;;;;;;;;;5040585;28;20231;-53
2022/06/15 01:33:41;;;;;;;7.35;4.47;;;;;;;;;;5070675;28;20230;-53
2022/06/15 01:36:13;;;;;;;6.28;3.80;;;;;;;;;;5064812;28;20228;-52
2022/06/15 01:38:41;;;;;;;5.90;3.92;;;;;;;;;;5062430;28;20314;-53
2022/06/15 01:41:10;;;;;;;7.78;3.72;;;;;;;;;;5053536;28;20228;-55
2022/06/15 01:43:41;;;;;;;7.57;4.72;;;;;;;;;;5053683;28;20266;-53
2022/06/15 01:46:09;;;;;;;4.50;4.05;;;;;;;;;;5056757;28;20238;-54
2022/06/15 01:48:36;;;;;;;6.00;4.40;;;;;;;;;;5052853;28;20237;-53
2022/06/15 01:51:05;;;;;;;4.78;4.30;;;;;;;;;;5063437;28;20245;-53
2022/06/15 01:53:34;;;;;;;9.15;5.95;;;;;;;;;;5056549;28;21762;-52
2022/06/15 01:56:02;;;;;;;9.55;6.75;;;;;;;;;;5052173;28;20606;-53
2022/06/15 01:58:30;;;;;;;11.50;7.18;;;;;;;;;;5064024;28;20257;-53
2022/06/15 02:01:01;;;;;;;11.20;6.88;;;;;;;;;;5055590;28;20223;-53
2022/06/15 02:03:32;;;;;;;6.65;5.93;;;;;;;;;;5050715;28;20739;-53
2022/06/15 02:06:03;;;;;;;6.88;6.18;;;;;;;;;;5057453;28;20235;-54
2022/06/15 02:08:32;;;;;;;8.57;5.20;;;;;;;;;;5063524;28;20285;-53
2022/06/15 02:11:01;;;;;;;6.57;5.20;;;;;;;;;;5055391;28;20227;-53
2022/06/15 02:13:31;;;;;;;8.90;5.38;;;;;;;;;;5060653;28;20819;-53
2022/06/15 02:16:01;;;;;;;6.80;4.85;;;;;;;;;;5054313;28;20231;-52
2022/06/15 02:18:29;;;;;;;5.68;4.35;;;;;;;;;;5052126;28;20244;-53
2022/06/15 02:20:59;;;;;;;7.05;5.40;;;;;;;;;;5055442;28;20859;-53
2022/06/15 02:23:27;;;;;;;4.93;3.88;;;;;;;;;;5056212;28;20695;-53
2022/06/15 02:25:54;;;;;;;7.88;3.85;;;;;;;;;;5053397;28;20249;-53
2022/06/15 02:28:23;;;;;;;5.28;3.67;;;;;;;;;;5057834;28;20337;-53
2022/06/15 02:30:50;;;;;;;7.28;4.30;;;;;;;;;;5053318;28;20242;-53
2022/06/15 02:33:24;;;;;;;4.22;3.63;;;;;;;;;;5056617;28;20234;-53
2022/06/15 02:35:52;;;;;;;6.43;4.40;;;;;;;;;;5054364;28;20549;-51
2022/06/15 02:38:18;;;;;;;7.55;4.00;;;;;;;;;;5067701;28;20323;-50
2022/06/15 02:40:44;;;;;;;4.85;3.75;;;;;;;;;;5052104;28;20231;-50
2022/06/15 02:43:11;;;;;;;5.03;3.78;;;;;;;;;;5062440;28;20237;-50
2022/06/15 02:45:39;;;;;;;5.68;3.80;;;;;;;;;;5060067;28;20714;-50
2022/06/15 02:48:07;;;;;;;6.90;3.47;;;;;;;;;;5058929;28;20319;-51
2022/06/15 02:50:36;;;;;;;5.03;3.88;;;;;;;;;;5053944;28;20235;-51
2022/06/15 02:53:06;;;;;;;6.07;3.58;;;;;;;;;;5065141;28;20243;-51
2022/06/15 02:55:32;;;;;;;6.57;4.20;;;;;;;;;;5055911;28;20243;-51
2022/06/15 02:58:03;;;;;;;4.90;3.95;;;;;;;;;;5054815;28;20223;-52
2022/06/15 03:00:29;;;;;;;8.40;4.05;;;;;;;;;;5065781;28;20729;-51
2022/06/15 03:02:56;;;;;;;6.85;4.50;;;;;;;;;;5056475;28;20688;-50
2022/06/15 03:05:22;;;;;;;4.43;3.70;;;;;;;;;;5063150;28;20242;-50
2022/06/15 03:07:48;;;;;;;6.80;3.83;;;;;;;;;;5059623;28;20231;-50
2022/06/15 03:10:16;;;;;;;5.03;4.32;;;;;;;;;;5054341;28;20748;-52
2022/06/15 03:12:42;;;;;;;5.65;4.32;;;;;;;;;;5054008;28;20239;-52
2022/06/15 03:15:10;;;;;;;5.93;4.90;;;;;;;;;;5057092;28;20235;-52
2022/06/15 03:17:36;;;;;;;4.72;4.10;;;;;;;;;;5068488;28;20310;-52
2022/06/15 03:20:02;;;;;;;6.78;3.78;;;;;;;;;;5058674;28;20240;-51
2022/06/15 03:22:29;;;;;;;5.55;4.60;;;;;;;;;;5063352;28;20246;-51
2022/06/15 03:24:55;;;;;;;9.57;4.97;;;;;;;;;;5057180;28;20236;-50
2022/06/15 03:27:23;;;;;;;7.00;5.03;;;;;;;;;;5054916;28;20235;-50
2022/06/15 03:29:50;;;;;;;7.63;5.20;;;;;;;;;;5054133;28;20243;-52
2022/06/15 03:32:16;;;;;;;6.45;4.85;;;;;;;;;;5051702;28;20784;-52
2022/06/15 03:34:43;;;;;;;4.72;4.20;;;;;;;;;;5074068;28;20232;-50
2022/06/15 03:37:09;;;;;;;5.10;4.43;;;;;;;;;;5073412;28;20341;-51
2022/06/15 03:39:36;;;;;;;7.18;5.05;;;;;;;;;;5058845;28;20315;-52
2022/06/15 03:42:09;;;;;;;12.60;4.15;;;;;;;;;;5051500;28;20239;-51
2022/06/15 03:44:37;;;;;;;7.95;5.03;;;;;;;;;;5056861;28;20281;-51
2022/06/15 03:47:04;;;;;;;4.47;3.95;;;;;;;;;;5057384;28;20238;-51
2022/06/15 03:49:31;;;;;;;4.97;4.00;;;;;;;;;;5067119;28;20227;-57
2022/06/15 03:51:57;;;;;;;4.88;4.38;;;;;;;;;;5065024;28;20380;-51
2022/06/15 03:54:23;;;;;;;5.38;4.07;;;;;;;;;;5062966;28;20223;-51
2022/06/15 03:56:50;;;;;;;8.20;4.20;;;;;;;;;;5057201;28;20257;-52
2022/06/15 03:59:16;;;;;;;5.72;4.28;;;;;;;;;;5060748;28;20373;-52
2022/06/15 04:01:44;;;;;;;9.82;4.70;;;;;;;;;;5063176;28;20757;-51
2022/06/15 04:04:10;;;;;;;7.53;4.95;;;;;;;;;;5060682;28;20692;-51
2022/06/15 04:06:37;;;;;;;8.05;4.55;;;;;;;;;;5054086;28;20307;-51
2022/06/15 04:09:03;;;;;;;4.93;4.15;;;;;;;;;;5047982;28;20256;-51
2022/06/15 04:14:13;;;;;;;6.07;4.35;;;;;;;;;;5058756;28;20805;-52
2022/06/15 04:16:39;;;;;;;5.60;4.45;;;;;;;;;;5059320;28;20237;-52
2022/06/15 04:19:08;;;;;;;7.38;4.80;;;;;;;;;;5063930;28;20346;-51
2022/06/15 04:21:35;;;;;;;4.40;3.95;;;;;;;;;;5065829;28;20309;-51
2022/06/15 04:24:01;;;;;;;3.17;2.88;;;;;;;;;;5065379;28;20230;-52
2022/06/15 04:26:27;;;;;;;4.18;2.95;;;;;;;;;;5061963;28;20317;-53
2022/06/15 04:28:54;;;;;;;3.03;2.60;;;;;;;;;;5060996;28;20614;-52
2022/06/15 04:31:20;;;;;;;3.28;2.45;;;;;;;;;;5077051;28;20230;-51
2022/06/15 04:33:46;;;;;;;3.03;2.42;;;;;;;;;;5053417;28;20240;-51
2022/06/15 04:36:14;;;;;;;4.88;2.42;;;;;;;;;;5049482;28;20250;-51
2022/06/15 04:38:40;;;;;;;2.58;2.08;;;;;;;;;;5055466;28;20566;-51
2022/06/15 04:41:07;;;;;;;2.17;2.00;;;;;;;;;;5083634;28;20790;-52
2022/06/15 04:43:33;;;;;;;5.00;2.45;;;;;;;;;;5055857;28;20733;-53
2022/06/15 04:46:00;;;;;;;4.38;2.30;;;;;;;;;;5065482;28;20235;-52
2022/06/15 04:48:26;;;;;;;2.80;2.50;;;;;;;;;;5057720;28;20583;-51
2022/06/15 04:50:55;;;;;;;5.93;2.63;;;;;;;;;;5064196;28;20611;-52
2022/06/15 04:53:22;;;;;;;3.08;2.17;;;;;;;;;;5061448;28;20924;-52
2022/06/15 04:55:49;;;;;;;2.45;1.80;;;;;;;;;;5055319;28;20258;-51
2022/06/15 04:58:15;;;;;;;7.15;3.00;;;;;;;;;;5062296;28;20231;-52
2022/06/15 05:00:42;;;;;;;3.15;2.30;;;;;;;;;;5056080;28;20296;-51
2022/06/15 05:03:09;;;;;;;4.80;2.97;;;;;;;;;;5056558;28;20231;-51
2022/06/15 05:05:36;;;;;;;3.95;2.92;;;;;;;;;;5056348;28;20659;-51
2022/06/15 05:08:02;;;;;;;3.65;2.42;;;;;;;;;;5057542;28;20236;-51
2022/06/15 05:10:30;;;;;;;7.63;2.83;;;;;;;;;;5057763;28;20234;-51
2022/06/15 05:12:56;;;;;;;3.33;2.60;;;;;;;;;;5056545;28;20231;-52
2022/06/15 05:15:23;;;;;;;3.78;2.70;;;;;;;;;;5072261;28;20748;-51
2022/06/15 05:17:50;;;;;;;2.60;2.10;;;;;;;;;;5055556;28;20244;-52
2022/06/15 05:20:17;;;;;;;4.78;2.55;;;;;;;;;;5051206;28;20393;-51
2022/06/15 05:22:44;;;;;;;2.30;1.92;;;;;;;;;;5045859;28;20243;-52
2022/06/15 05:25:11;;;;;;;6.30;3.15;;;;;;;;;;5053816;28;20724;-50
2022/06/15 05:27:38;;;;;;;2.80;2.47;;;;;;;;;;5048300;28;20235;-50
2022/06/15 05:30:05;;;;;;;6.40;3.00;;;;;;;;;;5062613;28;20234;-54
2022/06/15 05:32:32;;;;;;;2.75;2.13;;;;;;;;;;5081549;28;20714;-53
2022/06/15 05:35:00;;;;;;;4.10;2.67;;;;;;;;;;5051226;28;20258;-53
2022/06/15 05:37:28;;;;;;;4.40;2.55;;;;;;;;;;5044915;28;20637;-51
2022/06/15 05:39:54;;;;;;;4.93;2.70;;;;;;;;;;5053002;28;20261;-52
2022/06/15 05:42:21;;;;;;;2.90;2.03;;;;;;;;;;5064485;28;20932;-52
2022/06/15 05:44:49;;;;;;;4.30;2.28;;;;;;;;;;5064182;28;20239;-50
2022/06/15 05:47:15;;;;;;;3.47;2.30;;;;;;;;;;5063818;28;20236;-52
2022/06/15 05:49:42;;;;;;;3.25;2.63;;;;;;;;;;5065168;28;20242;-52
2022/06/15 05:52:08;;;;;;;3.30;2.78;;;;;;;;;;5062585;28;20233;-51
2022/06/15 05:54:35;;;;;;;6.40;2.40;;;;;;;;;;5056070;28;20231;-52
2022/06/15 05:57:01;;;;;;;4.18;2.72;;;;;;;;;;5065936;28;20254;-53
2022/06/15 05:59:28;;;;;;;3.55;2.28;;;;;;;;;;5063759;28;20713;-51
2022/06/15 06:01:55;;;;;;;2.72;2.03;;;;;;;;;;5061072;28;20242;-52
2022/06/15 06:04:22;;;;;;;10.10;3.10;;;;;;;;;;5053134;28;20238;-53
2022/06/15 06:06:48;;;;;;;2.70;2.00;;;;;;;;;;5074233;28;20739;-52
2022/06/15 06:09:15;;;;;;;2.25;1.70;;;;;;;;;;5058949;28;20230;-52
2022/06/15 06:11:41;;;;;;;2.65;1.73;;;;;;;;;;5045437;28;20329;-51
2022/06/15 06:14:08;;;;;;;4.32;2.17;;;;;;;;;;5054945;28;20232;-53
2022/06/15 06:16:35;;;;;;;4.32;2.60;;;;;;;;;;5059463;28;20234;-52
2022/06/15 06:19:02;;;;;;;3.55;2.25;;;;;;;;;;5049092;28;20255;-51
2022/06/15 06:21:29;;;;;;;1.90;1.80;;;;;;;;;;5059204;28;20245;-49
2022/06/15 06:23:55;;;;;;;1.55;1.45;;;;;;;;;;5071381;28;20432;-51
2022/06/15 06:26:24;;;;;;;4.03;2.05;;;;;;;;;;5056880;28;20242;-52
2022/06/15 06:28:51;;;;;;;3.13;1.55;;;;;;;;;;5050709;28;20266;-52
2022/06/15 06:31:19;;;;;;;4.40;1.83;;;;;;;;;;5064133;28;20338;-51
2022/06/15 06:33:46;;;;;;;5.72;2.33;;;;;;;;;;5055396;28;20239;-52
2022/06/15 06:36:17;;;;;;;5.78;1.88;;;;;;;;;;5058086;28;20239;-51
2022/06/15 06:38:43;;;;;;;8.02;2.55;;;;;;;;;;5059574;28;20238;-53
2022/06/15 06:41:11;;;;;;;1.98;1.40;;;;;;;;;;5072139;28;20232;-51
2022/06/15 06:43:37;;;;;;;2.13;1.63;;;;;;;;;;5056932;28;20227;-52
2022/06/15 06:46:05;;;;;;;5.82;2.00;;;;;;;;;;5054967;28;20240;-52
2022/06/15 06:48:31;;;;;;;2.30;1.40;;;;;;;;;;5055455;28;20245;-53
2022/06/15 06:50:57;;;;;;;2.38;1.50;;;;;;;;;;5053168;28;20223;-53
2022/06/15 06:53:25;;;;;;;5.05;1.83;;;;;;;;;;5052448;28;20232;-51
2022/06/15 06:55:52;;;;;;;4.40;1.80;;;;;;;;;;5068204;28;20230;-52
2022/06/15 06:58:18;;;;;;;3.05;1.70;;;;;;;;;;5073267;28;20231;-52
2022/06/15 07:00:46;;;;;;;1.58;1.10;;;;;;;;;;5061637;28;20235;-52
2022/06/15 07:03:12;;;;;;;1.58;1.10;;;;;;;;;;5052080;28;20442;-53
2022/06/15 07:05:38;;;;;;;4.13;1.70;;;;;;;;;;5051682;28;20238;-51
2022/06/15 07:08:05;;;;;;;1.48;1.25;;;;;;;;;;5056196;28;20227;-51
2022/06/15 07:10:33;;;;;;;2.72;1.60;;;;;;;;;;5054113;28;20227;-51
2022/06/15 07:12:59;;;;;;;3.25;1.50;;;;;;;;;;5068494;28;20778;-51
2022/06/15 07:15:26;;;;;;;1.73;1.33;;;;;;;;;;5055899;28;20243;-51
2022/06/15 07:17:52;;;;;;;3.78;2.10;;;;;;;;;;5058286;28;20713;-52
2022/06/15 07:20:19;;;;;;;2.80;1.80;;;;;;;;;;5054503;28;20282;-52
2022/06/15 07:22:45;;;;;;;2.88;1.45;;;;;;;;;;5046224;28;20274;-51
2022/06/15 07:25:12;;;;;;;4.63;1.70;;;;;;;;;;5055162;28;20232;-52
2022/06/15 07:27:40;;;;;;;4.10;1.90;;;;;;;;;;5051868;28;20239;-52
2022/06/15 07:30:08;;;;;;;3.60;1.55;;;;;;;;;;5052384;28;20231;-51
2022/06/15 07:32:34;;;;;;;2.60;1.60;;;;;;;;;;5056859;28;20242;-52
2022/06/15 07:35:03;;;;;;;2.15;1.38;;;;;;;;;;5058606;28;20223;-52
2022/06/15 07:37:29;;;;;;;3.63;1.17;;;;;;;;;;5046947;28;20270;-53
2022/06/15 07:39:56;;;;;;;3.65;1.35;;;;;;;;;;5048728;28;20259;-52
2022/06/15 07:42:22;;;;;;;1.35;1.25;;;;;;;;;;5056600;28;20246;-51
2022/06/15 07:44:50;;;;;;;2.05;1.73;;;;;;;;;;5047903;28;20252;-51
2022/06/15 07:50:00;;;;;;;3.17;1.40;;;;;;;;;;5050930;28;20349;-51
2022/06/15 07:52:29;;;;;;;4.65;1.67;;;;;;;;;;5058806;28;20236;-52
2022/06/15 07:54:56;;;;;;;2.67;1.60;;;;;;;;;;5051208;28;20232;-51
2022/06/15 07:57:22;;;;;;;3.35;1.20;;;;;;;;;;5060577;28;20780;-52
2022/06/15 07:59:50;;;;;;;2.08;1.65;;;;;;;;;;5059651;28;20721;-51
2022/06/15 08:02:17;;;;;;;3.85;1.17;;;;;;;;;;5067430;28;20234;-51
2022/06/15 08:04:44;;;;;;;1.30;1.20;;;;;;;;;;5061266;28;20239;-54
2022/06/15 08:07:11;;;;;;;4.25;1.50;;;;;;;;;;5062770;28;20236;-50
2022/06/15 08:09:38;;;;;;;3.17;1.50;;;;;;;;;;5059808;28;20231;-51
2022/06/15 08:12:15;;;;;;;9.75;1.50;;;;;;;;;;5059434;28;20239;-51
2022/06/15 08:14:43;;;;;;;4.13;1.70;;;;;;;;;;5065525;28;20270;-51
2022/06/15 08:17:12;;;;;;;3.70;1.95;;;;;;;;;;5065256;28;20219;-51
2022/06/15 08:19:41;;;;;;;3.65;1.98;;;;;;;;;;5073852;28;20227;-51
2022/06/15 08:22:07;;;;;;;2.22;1.30;;;;;;;;;;5059493;28;20330;-51
2022/06/15 08:24:34;;;;;;;3.08;1.30;;;;;;;;;;5059695;28;20262;-51
2022/06/15 08:27:01;;;;;;;1.88;1.60;;;;;;;;;;5059187;28;20231;-52
2022/06/15 08:29:28;;;;;;;0.95;0.93;;;;;;;;;;5053914;28;20333;-51
2022/06/15 08:31:57;;;;;;;1.13;0.98;;;;;;;;;;5073258;28;20365;-50
2022/06/15 08:34:24;;;;;;;2.88;1.80;;;;;;;;;;5076125;28;20227;-51
2022/06/15 08:36:51;;;;;;;4.15;1.10;;;;;;;;;;5049649;28;20235;-51
2022/06/15 08:39:17;;;;;;;1.40;1.00;;;;;;;;;;5067839;28;20239;-51
2022/06/15 08:41:46;;;;;;;3.80;1.50;;;;;;;;;;5058471;28;20239;-52
2022/06/15 08:44:18;;;;;;;3.78;1.45;;;;;;;;;;5056675;28;20237;-52
2022/06/15 08:46:48;;;;;;;2.80;1.60;;;;;;;;;;5066627;28;20250;-51
2022/06/15 08:49:20;;;;;;;5.68;1.95;;;;;;;;;;5065617;28;20314;-51
2022/06/15 08:51:51;;;;;;;3.92;1.92;;;;;;;;;;5072678;28;20245;-52
2022/06/15 08:54:21;;;;;;;4.05;1.83;;;;;;;;;;5069160;28;20224;-51
2022/06/15 08:56:50;;;;;;;3.65;1.80;;;;;;;;;;5054415;28;20235;-51
2022/06/15 08:59:19;;;;;;;2.92;1.90;;;;;;;;;;5051449;28;20239;-52
2022/06/15 09:01:50;;;;;;;5.35;1.60;;;;;;;;;;5058348;28;20705;-50
2022/06/15 09:04:22;;;;;;;2.90;1.50;;;;;;;;;;5057549;28;20316;-51
2022/06/15 09:06:57;;;;;;;4.10;1.63;;;;;;;;;;5061898;28;20235;-51
2022/06/15 09:09:33;;;;;;;2.85;1.67;;;;;;;;;;5064074;28;20225;-52
2022/06/15 09:14:54;;;;;;;2.35;1.88;;;;;;;;;;5054370;28;20305;-53
2022/06/15 09:17:23;;;;;;;3.38;1.67;;;;;;;;;;5051231;28;20257;-52
2022/06/15 09:19:52;;;;;;;2.53;1.35;;;;;;;;;;5056920;28;20243;-52
2022/06/15 09:22:22;;;;;;;2.97;1.52;;;;;;;;;;5066044;28;20238;-51
2022/06/15 09:24:51;;;;;;;2.00;1.40;;;;;;;;;;5054755;28;20234;-51
2022/06/15 09:27:21;;;;;;;5.20;1.77;;;;;;;;;;5059361;28;20241;-52
2022/06/15 09:29:53;;;;;;;9.93;1.67;;;;;;;;;;5053649;28;20235;-50
2022/06/15 09:32:21;;;;;;;3.17;1.83;;;;;;;;;;5054345;28;20239;-51
2022/06/15 09:34:51;;;;;;;4.13;1.90;;;;;;;;;;5055474;28;20235;-52
2022/06/15 09:37:19;;;;;;;2.60;1.70;;;;;;;;;;5058495;28;20227;-51
2022/06/15 09:39:47;;;;;;;3.47;1.95;;;;;;;;;;5069654;28;20241;-53
2022/06/15 09:42:18;;;;;;;3.40;2.03;;;;;;;;;;5052467;28;20240;-51
2022/06/15 09:44:48;;;;;;;1.75;1.40;;;;;;;;;;5062523;28;20719;-52
2022/06/15 09:47:20;;;;;;;4.75;1.85;;;;;;;;;;5048684;28;20231;-52
2022/06/15 09:49:53;;;;;;;6.43;2.13;;;;;;;;;;5057292;28;20584;-51
2022/06/15 09:52:36;;;;;;;3.72;1.67;;;;;;;;;;5053630;28;20238;-52
2022/06/15 09:55:07;;;;;;;3.10;1.70;;;;;;;;;;5057607;28;20237;-51
2022/06/15 09:57:34;;;;;;;3.35;1.45;;;;;;;;;;5059795;28;20753;-50
2022/06/15 10:00:02;;;;;;;3.80;1.83;;;;;;;;;;5053838;28;20234;-51
2022/06/15 10:02:30;;;;;;;2.75;1.75;;;;;;;;;;5049220;28;20228;-52
2022/06/15 10:04:58;;;;;;;6.90;2.50;;;;;;;;;;5041643;28;20224;-51
2022/06/15 10:07:28;;;;;;;5.95;1.77;;;;;;;;;;5058124;28;20238;-52
2022/06/15 10:09:56;;;;;;;7.07;2.65;;;;;;;;;;5053509;28;20281;-52
2022/06/15 10:12:56;;;;;;;4.05;2.33;;;;;;;;;;5061252;28;20254;-53
2022/06/15 10:15:24;;;;;;;8.38;3.17;;;;;;;;;;5051047;28;20723;-52
2022/06/15 10:17:52;;;;;;;7.30;2.85;;;;;;;;;;5060736;28;20327;-51
2022/06/15 10:20:24;;;;;;;3.42;1.63;;;;;;;;;;5055936;28;20321;-51
2022/06/15 10:22:52;;;;;;;4.32;2.10;;;;;;;;;;5060117;28;20246;-57
2022/06/15 10:25:19;;;;;;;3.58;1.92;;;;;;;;;;5057374;28;20227;-51
2022/06/15 10:27:47;;;;;;;2.60;1.70;;;;;;;;;;5050718;28;20729;-53
2022/06/15 10:30:17;;;;;;;2.55;1.75;;;;;;;;;;5060531;28;20236;-53
2022/06/15 10:32:57;;;;;;;6.00;1.75;;;;;;;;;;5055448;28;20289;-51
2022/06/15 10:35:27;;;;;;;6.57;1.67;;;;;;;;;;5048145;28;20239;-52
2022/06/15 10:37:56;;;;;;;3.65;2.00;;;;;;;;;;5047725;28;20236;-51
2022/06/15 10:40:25;;;;;;;5.32;1.90;;;;;;;;;;5058971;28;20231;-52
2022/06/15 10:42:55;;;;;;;4.10;1.75;;;;;;;;;;5054735;28;20258;-53
2022/06/15 10:45:25;;;;;;;3.58;1.65;;;;;;;;;;5057724;28;20948;-51
2022/06/15 10:47:53;;;;;;;3.08;1.90;;;;;;;;;;5053825;28;20684;-52
2022/06/15 10:50:23;;;;;;;3.25;1.75;;;;;;;;;;5056592;28;20238;-53
2022/06/15 10:52:56;;;;;;;5.07;2.25;;;;;;;;;;5052988;28;20238;-52
2022/06/15 11:04:14;;;;;;;8.23;3.60;;;;;;;;;;5037757;28;20285;-51
2022/06/15 11:06:43;;;;;;;6.30;2.60;;;;;;;;;;5051963;28;20241;-52
2022/06/15 11:09:26;;;;;;;8.25;3.60;;;;;;;;;;5055991;28;20227;-52
2022/06/15 11:11:53;;;;;;;4.90;2.10;;;;;;;;;;5049462;28;20239;-52
2022/06/15 11:14:23;;;;;;;3.15;1.70;;;;;;;;;;5052840;28;20240;-52
2022/06/15 11:19:37;;;;;;;5.55;1.90;;;;;;;;;;5056108;28;20380;-52
2022/06/15 11:22:08;;;;;;;4.05;2.28;;;;;;;;;;5059194;28;20242;-52
2022/06/15 11:24:36;;;;;;;6.55;2.35;;;;;;;;;;5062099;28;20235;-51
2022/06/15 11:27:05;;;;;;;5.00;2.08;;;;;;;;;;5065157;28;20237;-52
2022/06/15 11:29:38;;;;;;;6.05;1.60;;;;;;;;;;5058936;28;20233;-52
2022/06/15 11:32:07;;;;;;;4.47;1.73;;;;;;;;;;5056546;28;20226;-52
2022/06/15 11:34:37;;;;;;;4.30;2.28;;;;;;;;;;5063572;28;20231;-52
2022/06/15 11:37:05;;;;;;;2.90;1.30;;;;;;;;;;5054881;28;20231;-52
2022/06/15 11:39:34;;;;;;;4.78;2.17;;;;;;;;;;5056062;28;20230;-53
2022/06/15 11:42:01;;;;;;;4.95;2.17;;;;;;;;;;5063612;28;20249;-55
2022/06/15 11:44:32;;;;;;;3.08;2.17;;;;;;;;;;5062839;28;20277;-64
2022/06/15 11:47:09;;;;;;;3.55;2.13;;;;;;;;;;5066393;28;20227;-53
2022/06/15 11:49:40;;;;;;;2.35;1.92;;;;;;;;;;5059680;28;20288;-52
2022/06/15 11:52:20;;;;;;;3.42;2.42;;;;;;;;;;5064203;28;20769;-54
2022/06/15 11:55:00;;;;;;;5.57;2.55;;;;;;;;;;5062112;28;20235;-54
2022/06/15 11:57:31;;;;;;;3.60;2.08;;;;;;;;;;5066363;28;20706;-53
2022/06/15 12:00:03;;;;;;;10.02;2.53;;;;;;;;;;5068244;28;20768;-56
2022/06/15 12:02:37;;;;;;;3.17;1.83;;;;;;;;;;5059560;28;20741;-60
2022/06/15 12:05:22;;;;;;;4.55;2.45;;;;;;;;;;5058848;28;20238;-54
2022/06/15 12:07:56;;;;;;;7.75;2.00;;;;;;;;;;5059859;28;20237;-54
2022/06/15 12:10:31;;;;;;;4.22;2.10;;;;;;;;;;5060718;28;20237;-52
2022/06/15 12:13:00;;;;;;;3.70;1.60;;;;;;;;;;5050503;28;20326;-55
2022/06/15 12:15:33;;;;;;;3.45;1.98;;;;;;;;;;5063443;28;20239;-56
2022/06/15 12:18:06;;;;;;;2.60;1.70;;;;;;;;;;5058936;28;20267;-54
2022/06/15 12:20:41;;;;;;;2.92;2.05;;;;;;;;;;5052461;28;20233;-54
2022/06/15 12:23:23;;;;;;;2.13;1.88;;;;;;;;;;5063589;28;20245;-54
2022/06/15 12:25:55;;;;;;;3.22;2.10;;;;;;;;;;5056485;28;20235;-53
2022/06/15 12:28:26;;;;;;;6.25;2.35;;;;;;;;;;5051575;28;20247;-53
2022/06/15 12:30:53;;;;;;;3.22;1.85;;;;;;;;;;5057149;28;20245;-54
2022/06/15 12:33:28;;;;;;;3.50;1.73;;;;;;;;;;5060341;28;20242;-54
2022/06/15 12:35:57;;;;;;;4.82;2.33;;;;;;;;;;5055770;28;20705;-54
2022/06/15 12:38:26;;;;;;;3.90;1.92;;;;;;;;;;5057384;28;20234;-54
2022/06/15 12:40:54;;;;;;;4.70;1.95;;;;;;;;;;5060303;28;20231;-54
2022/06/15 12:43:24;;;;;;;6.40;2.25;;;;;;;;;;5059708;28;20239;-53
2022/06/15 12:45:52;;;;;;;4.43;2.20;;;;;;;;;;5059451;28;20227;-54
2022/06/15 12:48:27;;;;;;;4.15;2.05;;;;;;;;;;5054726;28;20234;-53
2022/06/15 12:51:00;;;;;;;3.83;1.60;;;;;;;;;;5040623;28;20254;-53
2022/06/15 12:53:32;;;;;;;2.78;2.20;;;;;;;;;;5040236;28;20247;-53
2022/06/15 12:56:07;;;;;;;5.70;1.50;;;;;;;;;;5051315;28;20239;-53
2022/06/15 12:58:38;;;;;;;6.47;2.72;;;;;;;;;;5047978;28;20636;-53
2022/06/15 13:01:08;;;;;;;3.40;2.33;;;;;;;;;;5048709;28;20231;-54
2022/06/15 13:03:42;;;;;;;6.22;2.22;;;;;;;;;;5048632;28;20228;-54
2022/06/15 13:06:24;;;;;;;2.83;1.52;;;;;;;;;;5052470;28;20605;-54
2022/06/15 13:08:59;;;;;;;1.98;1.80;;;;;;;;;;5049070;28;20617;-55
2022/06/15 13:11:26;;;;;;;3.88;1.77;;;;;;;;;;5058325;28;20568;-54
2022/06/15 13:13:53;;;;;;;2.65;1.73;;;;;;;;;;5058166;28;20250;-54
2022/06/15 13:16:30;;;;;;;6.35;1.63;;;;;;;;;;5053524;28;20709;-54
2022/06/15 13:18:58;;;;;;;2.20;2.00;;;;;;;;;;5051819;28;20332;-54
2022/06/15 13:21:27;;;;;;;2.30;1.75;;;;;;;;;;5059047;28;20235;-54
2022/06/15 13:24:01;;;;;;;2.70;1.10;;;;;;;;;;5054915;28;20325;-54
2022/06/15 13:26:47;;;;;;;1.38;1.27;;;;;;;;;;5050105;28;20234;-54
2022/06/15 13:29:25;;;;;;;4.60;2.17;;;;;;;;;;5057214;28;20624;-55
2022/06/15 13:31:53;;;;;;;2.80;1.70;;;;;;;;;;5057638;28;20855;-53
2022/06/15 13:34:34;;;;;;;2.20;1.80;;;;;;;;;;5052729;28;20238;-53
2022/06/15 13:37:13;;;;;;;2.25;1.58;;;;;;;;;;5055716;28;20228;-54
2022/06/15 13:39:48;;;;;;;2.67;1.38;;;;;;;;;;5052102;28;20306;-54
2022/06/15 13:42:21;;;;;;;5.00;2.00;;;;;;;;;;5049654;28;20318;-54
2022/06/15 13:44:49;;;;;;;3.63;1.80;;;;;;;;;;5054703;28;20744;-54
2022/06/15 13:47:15;;;;;;;1.55;1.33;;;;;;;;;;5042818;28;20248;-54
2022/06/15 13:49:42;;;;;;;2.22;1.67;;;;;;;;;;5056520;28;20326;-53
2022/06/15 13:52:11;;;;;;;3.28;1.48;;;;;;;;;;5060032;28;20239;-54
2022/06/15 13:54:56;;;;;;;3.30;2.00;;;;;;;;;;5062109;28;21052;-54
2022/06/15 13:57:31;;;;;;;2.25;1.80;;;;;;;;;;5046780;28;20289;-54
2022/06/15 14:00:04;;;;;;;1.63;1.33;;;;;;;;;;5058851;28;20865;-55
2022/06/15 14:02:40;;;;;;;3.67;1.73;;;;;;;;;;5053459;28;20777;-55
2022/06/15 14:05:25;;;;;;;5.55;1.95;;;;;;;;;;5055247;28;20234;-53
2022/06/15 14:07:59;;;;;;;1.67;1.20;;;;;;;;;;5053948;28;20231;-53
2022/06/15 14:10:35;;;;;;;5.18;1.63;;;;;;;;;;5054416;28;20827;-54
2022/06/15 14:13:16;;;;;;;3.80;1.77;;;;;;;;;;5047917;28;20228;-58
2022/06/15 14:16:02;;;;;;;2.35;1.58;;;;;;;;;;5051458;28;20237;-56
2022/06/15 14:18:35;;;;;;;3.88;1.70;;;;;;;;;;5055195;28;20224;-54
2022/06/15 14:21:11;;;;;;;3.83;1.42;;;;;;;;;;5047194;28;20224;-54
2022/06/15 14:23:38;;;;;;;2.92;1.55;;;;;;;;;;5049507;28;20264;-55
2022/06/15 14:26:06;;;;;;;2.65;1.70;;;;;;;;;;5048958;28;20761;-53
2022/06/15 14:28:33;;;;;;;3.45;1.67;;;;;;;;;;5053665;28;20238;-53
2022/06/15 14:31:02;;;;;;;4.10;1.65;;;;;;;;;;5060717;28;20776;-53
2022/06/15 14:33:29;;;;;;;3.28;1.55;;;;;;;;;;5050850;28;20267;-55
2022/06/15 14:35:59;;;;;;;2.78;1.80;;;;;;;;;;5055138;28;20587;-53
2022/06/15 14:38:25;;;;;;;1.45;1.35;;;;;;;;;;5061139;28;20280;-53
2022/06/15 14:40:52;;;;;;;3.08;1.40;;;;;;;;;;5058584;28;20774;-54
2022/06/15 14:43:21;;;;;;;3.25;1.77;;;;;;;;;;5055206;28;20239;-56
2022/06/15 14:45:49;;;;;;;2.65;2.00;;;;;;;;;;5056497;28;20227;-52
2022/06/15 14:48:25;;;;;;;1.48;1.23;;;;;;;;;;5054264;28;20235;-53
2022/06/15 14:51:04;;;;;;;1.75;1.63;;;;;;;;;;5056810;28;20266;-53
2022/06/15 14:53:30;;;;;;;7.13;2.22;;;;;;;;;;5060089;28;20711;-53
2022/06/15 14:55:59;;;;;;;7.38;1.90;;;;;;;;;;5057474;28;20223;-52
2022/06/15 14:58:25;;;;;;;2.22;1.67;;;;;;;;;;5064508;28;20235;-52
2022/06/15 15:01:03;;;;;;;2.03;1.73;;;;;;;;;;5058452;28;20262;-51
2022/06/15 15:03:31;;;;;;;3.05;1.42;;;;;;;;;;5060690;28;20238;-53
2022/06/15 15:06:01;;;;;;;1.52;1.27;;;;;;;;;;5055006;28;20246;-54
2022/06/15 15:08:30;;;;;;;1.92;1.63;;;;;;;;;;5060831;28;20227;-53
2022/06/15 15:10:57;;;;;;;5.05;2.03;;;;;;;;;;5062079;28;20230;-53
2022/06/15 15:13:27;;;;;;;3.17;1.63;;;;;;;;;;5060872;28;20570;-52